createdAt,value
2023-02-20T00:02:16.581Z,70.60
2023-02-20T00:05:21.834Z,70.50
2023-02-20T00:08:25.015Z,70.60
2023-02-20T00:11:28.005Z,70.80
2023-02-20T00:14:31.718Z,71.00
2023-02-20T00:17:34.842Z,71.20
2023-02-20T00:20:39.330Z,71.20
2023-02-20T00:23:42.378Z,71.20
2023-02-20T00:26:48.232Z,71.10
2023-02-20T00:29:51.226Z,71.20
2023-02-20T00:32:57.047Z,71.20
2023-02-20T00:36:01.582Z,71.20
2023-02-20T00:39:04.719Z,71.40
2023-02-20T00:42:07.785Z,71.40
2023-02-20T00:45:11.719Z,71.50
2023-02-20T00:48:14.688Z,71.60
2023-02-20T00:51:19.081Z,71.70
2023-02-20T00:54:22.176Z,71.70
2023-02-20T00:57:25.517Z,71.70
2023-02-20T01:00:32.229Z,71.80
2023-02-20T01:03:35.255Z,71.90
2023-02-20T01:06:39.652Z,72.00
2023-02-20T01:09:42.873Z,72.00
2023-02-20T01:12:46.290Z,72.20
2023-02-20T01:15:49.372Z,72.10
2023-02-20T01:18:52.884Z,72.30
2023-02-20T01:21:57.352Z,72.30
2023-02-20T01:25:00.355Z,72.30
2023-02-20T01:28:03.454Z,72.20
2023-02-20T01:31:06.906Z,72.40
2023-02-20T01:34:10.618Z,72.50
2023-02-20T01:37:16.492Z,72.30
2023-02-20T01:40:22.294Z,72.10
2023-02-20T01:43:25.584Z,72.10
2023-02-20T01:46:54.345Z,72.10
2023-02-20T01:50:03.285Z,72.00
2023-02-20T01:53:12.336Z,72.10
2023-02-20T01:56:15.492Z,72.30
2023-02-20T01:59:19.373Z,72.20
2023-02-20T02:02:25.230Z,72.10
2023-02-20T02:05:29.840Z,72.10
2023-02-20T02:08:37.804Z,72.20
2023-02-20T02:11:40.911Z,72.30
2023-02-20T02:14:43.942Z,72.10
2023-02-20T02:18:01.688Z,72.30
2023-02-20T02:21:36.033Z,72.50
2023-02-20T02:25:19.995Z,72.50
2023-02-20T02:29:08.567Z,72.40
2023-02-20T02:32:48.223Z,72.50
2023-02-20T02:36:19.396Z,72.70
2023-02-20T02:39:30.187Z,72.90
2023-02-20T02:42:44.164Z,72.80
2023-02-20T02:45:53.962Z,72.80
2023-02-20T02:49:04.452Z,73.00
2023-02-20T02:52:10.759Z,72.90
2023-02-20T02:55:15.007Z,72.90
2023-02-20T02:58:19.525Z,72.70
2023-02-20T03:01:23.668Z,72.60
2023-02-20T03:04:30.437Z,72.50
2023-02-20T03:07:37.795Z,72.60
2023-02-20T03:10:41.711Z,72.50
2023-02-20T03:14:05.229Z,72.30
2023-02-20T03:17:12.979Z,72.20
2023-02-20T03:20:20.130Z,72.10
2023-02-20T03:23:27.165Z,72.10
2023-02-20T03:26:33.961Z,72.00
2023-02-20T03:29:39.476Z,72.10
2023-02-20T03:33:02.292Z,72.20
2023-02-20T03:36:25.441Z,72.20
2023-02-20T03:39:51.728Z,72.30
2023-02-20T03:43:18.147Z,71.90
2023-02-20T03:46:24.144Z,72.00
2023-02-20T03:49:32.990Z,71.90
2023-02-20T03:52:36.914Z,71.90
2023-02-20T03:55:41.410Z,71.80
2023-02-20T03:58:48.318Z,71.90
2023-02-20T04:01:57.591Z,72.00
2023-02-20T04:05:07.440Z,72.00
2023-02-20T04:08:13.566Z,72.10
2023-02-20T04:11:22.568Z,72.20
2023-02-20T04:14:28.799Z,72.20
2023-02-20T04:17:35.778Z,72.10
2023-02-20T04:20:39.344Z,72.20
2023-02-20T04:23:46.466Z,72.20
2023-02-20T04:26:51.606Z,72.30
2023-02-20T04:29:55.062Z,72.40
2023-02-20T04:32:58.534Z,72.40
2023-02-20T04:36:02.220Z,72.60
2023-02-20T04:39:05.548Z,72.70
2023-02-20T04:42:09.996Z,72.70
2023-02-20T04:45:13.020Z,72.80
2023-02-20T04:48:16.010Z,72.80
2023-02-20T04:51:19.141Z,72.80
2023-02-20T04:54:22.164Z,73.00
2023-02-20T04:57:26.521Z,73.00
2023-02-20T05:00:29.685Z,73.00
2023-02-20T05:03:32.757Z,72.90
2023-02-20T05:06:40.840Z,72.90
2023-02-20T05:09:46.485Z,72.90
2023-02-20T05:12:50.900Z,73.00
2023-02-20T05:15:53.937Z,72.90
2023-02-20T05:18:57.090Z,73.00
2023-02-20T05:22:17.415Z,73.00
2023-02-20T05:25:21.567Z,73.00
2023-02-20T05:28:27.391Z,73.10
2023-02-20T05:31:31.016Z,73.30
2023-02-20T05:34:34.131Z,73.40
2023-02-20T05:37:37.205Z,73.60
2023-02-20T05:40:40.161Z,73.70
2023-02-20T05:43:44.602Z,73.70
2023-02-20T05:46:47.769Z,74.00
2023-02-20T05:49:51.283Z,74.10
2023-02-20T05:52:54.257Z,74.30
2023-02-20T05:55:57.507Z,74.60
2023-02-20T05:59:02.572Z,74.50
2023-02-20T06:02:05.590Z,74.50
2023-02-20T06:05:08.999Z,74.90
2023-02-20T06:08:12.299Z,74.90
2023-02-20T06:11:15.982Z,74.70
2023-02-20T06:14:21.884Z,74.70
2023-02-20T06:17:24.805Z,74.60
2023-02-20T06:20:28.028Z,74.60
2023-02-20T06:23:30.989Z,74.50
2023-02-20T06:26:34.060Z,74.30
2023-02-20T06:29:38.636Z,74.20
2023-02-20T06:32:41.687Z,74.40
2023-02-20T06:35:44.880Z,74.50
2023-02-20T06:38:47.905Z,74.70
2023-02-20T06:41:50.879Z,74.50
2023-02-20T06:44:55.296Z,74.50
2023-02-20T06:47:58.319Z,74.40
2023-02-20T06:51:01.356Z,74.60
2023-02-20T06:54:05.380Z,74.40
2023-02-20T06:57:08.410Z,74.50
2023-02-20T07:00:14.363Z,74.10
2023-02-20T07:03:17.381Z,74.20
2023-02-20T07:06:20.508Z,73.80
2023-02-20T07:09:25.141Z,73.80
2023-02-20T07:12:30.824Z,73.70
2023-02-20T07:15:35.360Z,73.20
2023-02-20T07:18:38.358Z,73.20
2023-02-20T07:21:41.425Z,72.40
2023-02-20T07:24:44.532Z,72.30
2023-02-20T07:27:47.817Z,72.30
2023-02-20T07:30:52.470Z,72.00
2023-02-20T07:33:55.623Z,71.70
2023-02-20T07:36:58.635Z,71.20
2023-02-20T07:40:01.699Z,71.00
2023-02-20T07:43:04.736Z,71.00
2023-02-20T07:46:09.119Z,70.70
2023-02-20T07:49:12.181Z,70.60
2023-02-20T07:52:15.311Z,70.20
2023-02-20T07:55:20.069Z,69.90
2023-02-20T07:58:23.408Z,69.70
2023-02-20T08:01:27.854Z,69.70
2023-02-20T08:04:30.792Z,69.20
2023-02-20T08:07:33.802Z,69.00
2023-02-20T08:10:36.812Z,69.10
2023-02-20T08:13:40.187Z,68.70
2023-02-20T08:16:44.549Z,68.30
2023-02-20T08:19:48.103Z,68.00
2023-02-20T08:22:52.364Z,68.20
2023-02-20T08:25:55.711Z,68.00
2023-02-20T08:28:58.695Z,68.10
2023-02-20T08:32:03.509Z,67.70
2023-02-20T08:35:07.153Z,67.80
2023-02-20T08:38:29.862Z,67.90
2023-02-20T08:41:32.875Z,67.60
2023-02-20T08:44:36.037Z,67.70
2023-02-20T08:47:40.590Z,67.40
2023-02-20T08:50:43.860Z,67.50
2023-02-20T08:53:46.778Z,67.10
2023-02-20T08:56:49.774Z,66.80
2023-02-20T08:59:52.735Z,67.00
2023-02-20T09:02:57.091Z,67.10
2023-02-20T09:06:00.730Z,66.90
2023-02-20T09:09:03.789Z,66.70
2023-02-20T09:12:07.769Z,66.50
2023-02-20T09:15:11.528Z,66.30
2023-02-20T09:18:16.329Z,65.90
2023-02-20T09:21:20.837Z,66.20
2023-02-20T09:24:23.825Z,66.20
2023-02-20T09:27:28.793Z,65.90
2023-02-20T09:30:31.825Z,65.50
2023-02-20T09:33:36.339Z,65.60
2023-02-20T09:36:39.316Z,65.50
2023-02-20T09:39:42.286Z,65.30
2023-02-20T09:42:58.728Z,64.80
2023-02-20T09:46:10.395Z,64.70
2023-02-20T09:49:17.806Z,64.80
2023-02-20T09:52:23.513Z,64.70
2023-02-20T09:55:31.869Z,64.70
2023-02-20T09:58:43.107Z,64.40
2023-02-20T10:01:54.531Z,64.60
2023-02-20T10:05:04.591Z,64.30
2023-02-20T10:08:11.929Z,64.00
2023-02-20T10:11:24.932Z,63.60
2023-02-20T10:15:08.505Z,63.50
2023-02-20T10:18:24.461Z,63.50
2023-02-20T10:21:42.435Z,63.30
2023-02-20T10:24:57.151Z,63.30
2023-02-20T10:28:07.015Z,63.40
2023-02-20T10:31:23.618Z,63.50
2023-02-20T10:34:36.375Z,63.60
2023-02-20T10:37:47.740Z,63.50
2023-02-20T10:40:58.924Z,63.60
2023-02-20T10:44:09.057Z,63.20
2023-02-20T10:47:17.523Z,63.40
2023-02-20T10:50:24.635Z,63.40
2023-02-20T10:53:37.739Z,63.40
2023-02-20T10:56:46.564Z,63.50
2023-02-20T10:59:54.335Z,63.30
2023-02-20T11:03:07.942Z,63.40
2023-02-20T11:06:16.193Z,63.30
2023-02-20T11:09:24.240Z,63.50
2023-02-20T11:12:32.581Z,63.60
2023-02-20T11:15:36.687Z,63.50
2023-02-20T11:18:41.116Z,63.70
2023-02-20T11:21:47.721Z,63.80
2023-02-20T11:24:52.369Z,64.10
2023-02-20T11:27:58.008Z,63.90
2023-02-20T11:31:04.424Z,64.00
2023-02-20T11:34:13.950Z,64.20
2023-02-20T11:37:18.315Z,64.20
2023-02-20T11:40:28.040Z,64.50
2023-02-20T11:43:35.770Z,64.60
2023-02-20T11:46:38.885Z,64.30
2023-02-20T11:49:42.027Z,64.40
2023-02-20T11:52:59.820Z,64.70
2023-02-20T11:56:14.062Z,64.40
2023-02-20T11:59:33.117Z,64.70
2023-02-20T12:02:36.470Z,64.90
2023-02-20T12:05:42.682Z,65.10
2023-02-20T12:08:55.219Z,65.40
2023-02-20T12:11:59.669Z,65.80
2023-02-20T12:15:03.498Z,66.00
2023-02-20T12:18:31.125Z,66.00
2023-02-20T12:21:45.451Z,66.00
2023-02-20T12:25:04.243Z,66.00
2023-02-20T12:28:18.218Z,66.00
2023-02-20T12:31:33.729Z,66.10
2023-02-20T12:34:56.975Z,66.10
2023-02-20T12:38:25.184Z,66.00
2023-02-20T12:41:49.415Z,66.20
2023-02-20T12:45:06.971Z,66.40
2023-02-20T12:48:24.561Z,66.50
2023-02-20T12:51:33.418Z,66.60
2023-02-20T12:54:45.997Z,66.80
2023-02-20T12:57:59.349Z,67.10
2023-02-20T13:01:07.456Z,67.20
2023-02-20T13:04:24.401Z,67.40
2023-02-20T13:07:35.038Z,67.70
2023-02-20T13:10:48.447Z,68.00
2023-02-20T13:14:04.694Z,68.40
2023-02-20T13:17:21.273Z,69.10
2023-02-20T13:20:27.624Z,69.80
2023-02-20T13:23:34.244Z,70.10
2023-02-20T13:26:50.096Z,70.30
2023-02-20T13:30:01.899Z,70.70
2023-02-20T13:33:19.182Z,71.20
2023-02-20T13:36:43.411Z,71.40
2023-02-20T13:39:48.858Z,71.60
2023-02-20T13:43:33.692Z,72.00
2023-02-20T13:46:58.148Z,72.20
2023-02-20T13:50:03.155Z,72.40
2023-02-20T13:53:06.829Z,72.40
2023-02-20T13:56:16.897Z,72.40
2023-02-20T13:59:21.722Z,72.40
2023-02-20T14:02:30.252Z,72.60
2023-02-20T14:05:36.290Z,72.30
2023-02-20T14:08:41.745Z,72.40
2023-02-20T14:11:48.193Z,72.30
2023-02-20T14:14:51.573Z,72.30
2023-02-20T14:17:55.824Z,72.10
2023-02-20T14:21:10.001Z,72.20
2023-02-20T14:24:20.252Z,72.10
2023-02-20T14:27:28.038Z,72.00
2023-02-20T14:30:31.827Z,72.00
2023-02-20T14:33:36.045Z,72.00
2023-02-20T14:36:52.307Z,71.80
2023-02-20T14:40:03.936Z,71.60
2023-02-20T14:43:15.484Z,71.70
2023-02-20T14:46:26.183Z,71.70
2023-02-20T14:49:31.388Z,71.50
2023-02-20T14:52:35.862Z,71.40
2023-02-20T14:55:39.436Z,71.20
2023-02-20T14:58:43.008Z,71.00
2023-02-20T15:01:46.251Z,70.80
2023-02-20T15:04:52.541Z,70.70
2023-02-20T15:08:02.690Z,70.30
2023-02-20T15:11:11.742Z,70.20
2023-02-20T15:14:20.697Z,69.90
2023-02-20T15:17:25.919Z,69.90
2023-02-20T15:20:38.498Z,69.90
2023-02-20T15:23:44.253Z,69.80
2023-02-20T15:26:47.661Z,69.90
2023-02-20T15:30:10.282Z,70.00
2023-02-20T15:33:13.344Z,70.00
2023-02-20T15:36:20.271Z,69.80
2023-02-20T15:39:24.730Z,69.80
2023-02-20T15:42:27.723Z,69.70
2023-02-20T15:45:32.120Z,69.90
2023-02-20T15:48:35.209Z,69.90
2023-02-20T15:51:41.993Z,69.90
2023-02-20T15:54:53.029Z,69.90
2023-02-20T15:57:57.637Z,70.10
2023-02-20T16:01:01.277Z,70.20
2023-02-20T16:04:07.251Z,70.20
2023-02-20T16:07:10.433Z,70.20
2023-02-20T16:10:18.003Z,70.50
2023-02-20T16:13:28.529Z,70.60
2023-02-20T16:16:36.543Z,70.70
2023-02-20T16:19:42.653Z,70.90
2023-02-20T16:22:46.147Z,71.10
2023-02-20T16:25:51.886Z,71.30
2023-02-20T16:29:00.683Z,71.50
2023-02-20T16:32:24.882Z,72.10
2023-02-20T16:35:27.842Z,72.40
2023-02-20T16:38:30.787Z,72.70
2023-02-20T16:41:35.738Z,72.90
2023-02-20T16:44:43.048Z,73.00
2023-02-20T16:47:52.341Z,73.20
2023-02-20T16:50:55.406Z,73.20
2023-02-20T16:53:58.460Z,73.20
2023-02-20T16:57:02.912Z,73.40
2023-02-20T17:00:06.541Z,73.30
2023-02-20T17:03:10.578Z,73.30
2023-02-20T17:06:17.922Z,73.30
2023-02-20T17:09:22.073Z,73.20
2023-02-20T17:12:28.129Z,73.20
2023-02-20T17:15:31.396Z,73.50
2023-02-20T17:18:34.506Z,73.50
2023-02-20T17:21:37.426Z,73.50
2023-02-20T17:24:42.271Z,73.50
2023-02-20T17:27:46.712Z,73.40
2023-02-20T17:30:54.315Z,73.50
2023-02-20T17:33:57.274Z,73.40
2023-02-20T17:37:00.246Z,73.20
2023-02-20T17:40:04.098Z,73.30
2023-02-20T17:43:08.645Z,73.50
2023-02-20T17:46:11.799Z,73.60
2023-02-20T17:49:16.203Z,73.90
2023-02-20T17:52:20.613Z,74.30
2023-02-20T17:55:28.626Z,74.60
2023-02-20T17:58:32.999Z,74.80
2023-02-20T18:01:36.790Z,75.00
2023-02-20T18:04:40.034Z,75.20
2023-02-20T18:07:43.041Z,75.20
2023-02-20T18:10:46.024Z,75.40
2023-02-20T18:13:50.766Z,75.40
2023-02-20T18:16:53.736Z,75.60
2023-02-20T18:19:56.805Z,75.80
2023-02-20T18:23:00.191Z,75.80
2023-02-20T18:26:03.264Z,76.10
2023-02-20T18:29:07.638Z,76.50
2023-02-20T18:32:10.780Z,76.70
2023-02-20T18:35:13.941Z,77.20
2023-02-20T18:38:17.176Z,77.60
2023-02-20T18:41:20.479Z,78.00
2023-02-20T18:44:25.553Z,78.20
2023-02-20T18:47:28.472Z,78.50
2023-02-20T18:50:31.600Z,78.90
2023-02-20T18:53:34.605Z,79.20
2023-02-20T18:56:38.887Z,79.20
2023-02-20T18:59:44.374Z,79.30
2023-02-20T19:02:48.488Z,79.50
2023-02-20T19:05:51.614Z,79.70
2023-02-20T19:08:55.158Z,79.80
2023-02-20T19:11:58.400Z,79.70
2023-02-20T19:15:04.659Z,79.80
2023-02-20T19:18:07.726Z,79.80
2023-02-20T19:21:11.574Z,79.70
2023-02-20T19:24:14.590Z,79.80
2023-02-20T19:27:17.602Z,79.80
2023-02-20T19:30:21.980Z,79.90
2023-02-20T19:33:26.592Z,79.70
2023-02-20T19:36:29.614Z,79.80
2023-02-20T19:39:32.654Z,79.80
2023-02-20T19:42:35.826Z,79.80
2023-02-20T19:45:40.289Z,79.90
2023-02-20T19:48:44.623Z,79.60
2023-02-20T19:51:48.828Z,79.60
2023-02-20T19:54:51.826Z,79.50
2023-02-20T19:57:55.611Z,79.20
2023-02-20T20:00:59.892Z,79.00
2023-02-20T20:04:03.049Z,79.00
2023-02-20T20:07:06.248Z,78.90
2023-02-20T20:10:10.352Z,78.60
2023-02-20T20:13:13.412Z,78.50
2023-02-20T20:16:17.920Z,78.30
2023-02-20T20:19:20.940Z,78.30
2023-02-20T20:22:23.966Z,78.10
2023-02-20T20:25:26.961Z,78.10
2023-02-20T20:28:29.954Z,77.90
2023-02-20T20:31:38.001Z,77.80
2023-02-20T20:34:46.435Z,77.60
2023-02-20T20:37:49.713Z,77.60
2023-02-20T20:40:53.428Z,77.40
2023-02-20T20:44:04.262Z,77.10
2023-02-20T20:47:09.957Z,77.00
2023-02-20T20:50:15.799Z,76.70
2023-02-20T20:53:18.826Z,76.70
2023-02-20T20:56:21.887Z,76.70
2023-02-20T20:59:25.299Z,76.60
2023-02-20T21:02:30.139Z,76.60
2023-02-20T21:05:35.008Z,76.60
2023-02-20T21:08:37.986Z,76.70
2023-02-20T21:11:41.642Z,76.70
2023-02-20T21:14:45.393Z,76.70
2023-02-20T21:17:49.691Z,76.70
2023-02-20T21:20:52.679Z,76.70
2023-02-20T21:23:55.738Z,76.60
2023-02-20T21:26:58.766Z,76.60
2023-02-20T21:30:01.763Z,76.50
2023-02-20T21:33:06.445Z,76.30
2023-02-20T21:36:10.226Z,76.20
2023-02-20T21:39:13.219Z,76.20
2023-02-20T21:42:34.077Z,76.10
2023-02-20T21:45:37.238Z,76.20
2023-02-20T21:48:42.034Z,76.20
2023-02-20T21:51:45.027Z,76.20
2023-02-20T21:54:49.978Z,76.40
2023-02-20T21:57:57.957Z,76.50
2023-02-20T22:00:59.779Z,76.50
2023-02-20T22:04:06.204Z,76.60
2023-02-20T22:07:26.918Z,76.50
2023-02-20T22:10:47.292Z,76.50
2023-02-20T22:14:14.747Z,76.60
2023-02-20T22:17:35.375Z,76.80
2023-02-20T22:20:57.062Z,76.80
2023-02-20T22:24:20.373Z,76.90
2023-02-20T22:27:42.971Z,77.20
2023-02-20T22:31:03.441Z,77.60
2023-02-20T22:34:23.772Z,77.70
2023-02-20T22:37:45.478Z,77.70
2023-02-20T22:41:05.893Z,77.60
2023-02-20T22:44:26.499Z,77.70
2023-02-20T22:47:47.998Z,77.90
2023-02-20T22:51:08.228Z,77.90
2023-02-20T22:54:30.250Z,78.00
2023-02-20T22:57:50.874Z,78.20
2023-02-20T23:01:12.124Z,78.20
2023-02-20T23:04:32.900Z,78.50
2023-02-20T23:07:53.205Z,78.70
2023-02-20T23:11:15.843Z,79.00
2023-02-20T23:14:36.311Z,79.20
2023-02-20T23:18:01.109Z,79.30
2023-02-20T23:21:21.533Z,79.40
2023-02-20T23:24:41.730Z,79.50
2023-02-20T23:28:03.304Z,79.60
2023-02-20T23:31:24.848Z,79.70
2023-02-20T23:34:47.142Z,79.80
2023-02-20T23:38:09.565Z,80.00
2023-02-20T23:41:30.155Z,80.20
2023-02-20T23:44:52.036Z,80.40
2023-02-20T23:48:12.832Z,80.50
2023-02-20T23:51:33.314Z,80.70
2023-02-20T23:54:53.579Z,80.90
2023-02-20T23:58:14.068Z,81.00
